sensor_id;sensor_type;location;lat;lon;timestamp;pressure;altitude;pressure_sealevel;temperature;humidity
74960;BME280;63518;49.572;1.106;2023-01-28T00:01:15;100829.59;;;3.69;72.44
74960;BME280;63518;49.572;1.106;2023-01-28T00:03:48;100810.56;;;3.69;72.58
74960;BME280;63518;49.572;1.106;2023-01-28T00:06:16;100818.97;;;3.74;72.87
74960;BME280;63518;49.572;1.106;2023-01-28T00:08:45;100821.72;;;3.81;72.29
74960;BME280;63518;49.572;1.106;2023-01-28T00:11:13;100824.78;;;3.99;72.00
74960;BME280;63518;49.572;1.106;2023-01-28T00:13:40;100824.06;;;3.84;72.24
74960;BME280;63518;49.572;1.106;2023-01-28T00:16:08;100802.53;;;3.89;71.76
74960;BME280;63518;49.572;1.106;2023-01-28T00:18:36;100826.13;;;4.17;72.31
74960;BME280;63518;49.572;1.106;2023-01-28T00:21:04;100830.84;;;4.01;72.05
74960;BME280;63518;49.572;1.106;2023-01-28T00:23:34;100828.34;;;4.00;71.98
74960;BME280;63518;49.572;1.106;2023-01-28T00:26:05;100827.72;;;4.04;72.95
74960;BME280;63518;49.572;1.106;2023-01-28T00:28:32;100827.88;;;3.96;71.81
74960;BME280;63518;49.572;1.106;2023-01-28T00:31:19;100830.72;;;4.16;71.63
74960;BME280;63518;49.572;1.106;2023-01-28T00:33:49;100837.44;;;4.13;71.08
74960;BME280;63518;49.572;1.106;2023-01-28T00:36:18;100819.06;;;3.88;71.74
74960;BME280;63518;49.572;1.106;2023-01-28T00:39:04;100828.44;;;4.20;70.85
74960;BME280;63518;49.572;1.106;2023-01-28T00:41:32;100831.94;;;4.07;71.62
74960;BME280;63518;49.572;1.106;2023-01-28T00:43:59;100837.66;;;4.19;72.35
74960;BME280;63518;49.572;1.106;2023-01-28T00:46:26;100840.66;;;4.30;72.04
74960;BME280;63518;49.572;1.106;2023-01-28T00:48:57;100829.69;;;3.82;72.29
74960;BME280;63518;49.572;1.106;2023-01-28T00:51:24;100844.34;;;4.16;71.23
74960;BME280;63518;49.572;1.106;2023-01-28T00:53:51;100840.56;;;4.17;71.94
74960;BME280;63518;49.572;1.106;2023-01-28T00:56:19;100848.06;;;3.80;71.81
74960;BME280;63518;49.572;1.106;2023-01-28T00:58:46;100827.16;;;3.81;72.23
74960;BME280;63518;49.572;1.106;2023-01-28T01:01:19;100851.19;;;4.12;72.02
74960;BME280;63518;49.572;1.106;2023-01-28T01:03:47;100851.16;;;4.05;71.93
74960;BME280;63518;49.572;1.106;2023-01-28T01:06:16;100855.31;;;4.36;71.64
74960;BME280;63518;49.572;1.106;2023-01-28T01:08:43;100851.84;;;4.14;73.28
74960;BME280;63518;49.572;1.106;2023-01-28T01:11:16;100857.72;;;3.83;72.25
74960;BME280;63518;49.572;1.106;2023-01-28T01:13:44;100866.78;;;3.97;72.45
74960;BME280;63518;49.572;1.106;2023-01-28T01:16:14;100862.97;;;4.19;72.12
74960;BME280;63518;49.572;1.106;2023-01-28T01:18:47;100859.53;;;4.38;71.17
74960;BME280;63518;49.572;1.106;2023-01-28T01:21:16;100870.00;;;4.07;72.04
74960;BME280;63518;49.572;1.106;2023-01-28T01:23:44;100858.56;;;4.18;71.80
74960;BME280;63518;49.572;1.106;2023-01-28T01:26:12;100869.75;;;4.02;71.84
74960;BME280;63518;49.572;1.106;2023-01-28T01:28:39;100880.84;;;4.35;71.41
74960;BME280;63518;49.572;1.106;2023-01-28T01:31:10;100876.34;;;4.14;71.77
74960;BME280;63518;49.572;1.106;2023-01-28T01:33:38;100862.38;;;3.96;72.53
74960;BME280;63518;49.572;1.106;2023-01-28T01:36:06;100868.81;;;4.16;72.46
74960;BME280;63518;49.572;1.106;2023-01-28T01:38:33;100847.53;;;4.26;71.23
74960;BME280;63518;49.572;1.106;2023-01-28T01:41:04;100873.31;;;4.02;72.30
74960;BME280;63518;49.572;1.106;2023-01-28T01:46:39;100871.22;;;4.04;72.37
74960;BME280;63518;49.572;1.106;2023-01-28T01:49:21;100869.44;;;4.18;72.48
74960;BME280;63518;49.572;1.106;2023-01-28T01:52:12;100874.94;;;3.97;72.56
74960;BME280;63518;49.572;1.106;2023-01-28T01:54:43;100861.00;;;3.78;71.54
74960;BME280;63518;49.572;1.106;2023-01-28T01:57:15;100872.06;;;4.05;71.12
74960;BME280;63518;49.572;1.106;2023-01-28T01:59:43;100870.22;;;3.77;69.46
74960;BME280;63518;49.572;1.106;2023-01-28T02:02:11;100865.72;;;3.91;70.95
74960;BME280;63518;49.572;1.106;2023-01-28T02:04:41;100862.75;;;3.86;69.95
74960;BME280;63518;49.572;1.106;2023-01-28T02:07:14;100870.59;;;4.02;69.84
74960;BME280;63518;49.572;1.106;2023-01-28T02:09:42;100869.91;;;3.94;69.87
74960;BME280;63518;49.572;1.106;2023-01-28T02:12:29;100871.22;;;4.04;70.47
74960;BME280;63518;49.572;1.106;2023-01-28T02:15:14;100864.69;;;3.92;71.08
74960;BME280;63518;49.572;1.106;2023-01-28T02:17:43;100856.56;;;3.99;70.52
74960;BME280;63518;49.572;1.106;2023-01-28T02:20:13;100855.91;;;3.97;70.13
74960;BME280;63518;49.572;1.106;2023-01-28T02:31:56;100852.44;;;3.75;71.06
74960;BME280;63518;49.572;1.106;2023-01-28T02:37:24;100856.16;;;3.74;69.86
74960;BME280;63518;49.572;1.106;2023-01-28T02:39:57;100846.50;;;3.93;70.51
74960;BME280;63518;49.572;1.106;2023-01-28T02:42:29;100860.19;;;4.12;69.72
74960;BME280;63518;49.572;1.106;2023-01-28T02:44:59;100860.44;;;4.18;71.26
74960;BME280;63518;49.572;1.106;2023-01-28T02:47:26;100853.03;;;4.05;73.51
74960;BME280;63518;49.572;1.106;2023-01-28T02:50:14;100837.91;;;3.96;70.10
74960;BME280;63518;49.572;1.106;2023-01-28T02:58:40;100880.22;;;4.05;71.61
74960;BME280;63518;49.572;1.106;2023-01-28T03:01:21;100884.91;;;3.90;71.03
74960;BME280;63518;49.572;1.106;2023-01-28T03:03:56;100880.38;;;3.97;71.18
74960;BME280;63518;49.572;1.106;2023-01-28T03:06:31;100872.94;;;4.12;71.16
74960;BME280;63518;49.572;1.106;2023-01-28T03:09:05;100871.44;;;4.03;71.80
74960;BME280;63518;49.572;1.106;2023-01-28T03:12:02;100861.59;;;4.02;71.20
74960;BME280;63518;49.572;1.106;2023-01-28T03:14:55;100880.63;;;3.74;72.27
74960;BME280;63518;49.572;1.106;2023-01-28T03:17:51;100889.38;;;3.97;72.12
74960;BME280;63518;49.572;1.106;2023-01-28T03:23:31;100888.44;;;4.11;72.09
74960;BME280;63518;49.572;1.106;2023-01-28T03:26:23;100882.41;;;4.16;72.27
74960;BME280;63518;49.572;1.106;2023-01-28T03:29:12;100885.97;;;3.89;71.66
74960;BME280;63518;49.572;1.106;2023-01-28T03:31:59;100885.03;;;4.03;70.76
74960;BME280;63518;49.572;1.106;2023-01-28T03:34:46;100888.31;;;3.92;70.55
74960;BME280;63518;49.572;1.106;2023-01-28T03:37:32;100882.66;;;3.93;71.74
74960;BME280;63518;49.572;1.106;2023-01-28T03:40:07;100885.84;;;4.31;71.38
74960;BME280;63518;49.572;1.106;2023-01-28T03:42:34;100890.47;;;4.03;69.95
74960;BME280;63518;49.572;1.106;2023-01-28T03:45:04;100894.00;;;4.31;70.47
74960;BME280;63518;49.572;1.106;2023-01-28T03:47:33;100896.94;;;4.02;70.85
74960;BME280;63518;49.572;1.106;2023-01-28T03:50:01;100895.38;;;4.14;70.93
74960;BME280;63518;49.572;1.106;2023-01-28T03:52:32;100874.94;;;3.97;72.19
74960;BME280;63518;49.572;1.106;2023-01-28T03:54:59;100891.13;;;4.39;70.88
74960;BME280;63518;49.572;1.106;2023-01-28T03:57:27;100895.53;;;4.12;71.64
74960;BME280;63518;49.572;1.106;2023-01-28T03:59:57;100896.97;;;3.80;71.69
74960;BME280;63518;49.572;1.106;2023-01-28T04:02:24;100896.16;;;4.08;71.15
74960;BME280;63518;49.572;1.106;2023-01-28T04:04:53;100890.66;;;4.01;72.35
74960;BME280;63518;49.572;1.106;2023-01-28T04:07:20;100900.06;;;3.99;72.52
74960;BME280;63518;49.572;1.106;2023-01-28T04:09:47;100893.34;;;3.95;72.28
74960;BME280;63518;49.572;1.106;2023-01-28T04:12:15;100887.00;;;4.16;72.62
74960;BME280;63518;49.572;1.106;2023-01-28T04:14:42;100895.69;;;4.04;71.74
74960;BME280;63518;49.572;1.106;2023-01-28T04:17:10;100883.84;;;3.84;72.30
74960;BME280;63518;49.572;1.106;2023-01-28T04:19:37;100894.81;;;3.97;71.13
74960;BME280;63518;49.572;1.106;2023-01-28T04:22:08;100900.97;;;4.06;72.15
74960;BME280;63518;49.572;1.106;2023-01-28T04:24:36;100903.13;;;3.89;72.81
74960;BME280;63518;49.572;1.106;2023-01-28T04:27:03;100902.75;;;3.71;72.48
74960;BME280;63518;49.572;1.106;2023-01-28T04:29:30;100911.84;;;4.06;71.50
74960;BME280;63518;49.572;1.106;2023-01-28T04:31:57;100914.44;;;3.93;71.76
74960;BME280;63518;49.572;1.106;2023-01-28T04:34:24;100914.81;;;3.90;70.51
74960;BME280;63518;49.572;1.106;2023-01-28T04:36:53;100916.47;;;4.12;70.87
74960;BME280;63518;49.572;1.106;2023-01-28T04:39:20;100917.34;;;3.63;72.60
74960;BME280;63518;49.572;1.106;2023-01-28T04:41:49;100922.91;;;3.76;70.23
74960;BME280;63518;49.572;1.106;2023-01-28T04:44:19;100898.44;;;3.55;69.34
74960;BME280;63518;49.572;1.106;2023-01-28T04:46:46;100924.56;;;3.56;69.53
74960;BME280;63518;49.572;1.106;2023-01-28T04:49:16;100917.50;;;3.83;68.77
74960;BME280;63518;49.572;1.106;2023-01-28T04:51:43;100920.16;;;3.98;69.73
74960;BME280;63518;49.572;1.106;2023-01-28T04:54:10;100924.31;;;3.72;69.29
74960;BME280;63518;49.572;1.106;2023-01-28T04:56:37;100888.03;;;3.58;69.45
74960;BME280;63518;49.572;1.106;2023-01-28T04:59:05;100929.38;;;3.75;69.38
74960;BME280;63518;49.572;1.106;2023-01-28T05:01:32;100919.13;;;3.77;69.92
74960;BME280;63518;49.572;1.106;2023-01-28T05:04:00;100910.28;;;3.69;69.27
74960;BME280;63518;49.572;1.106;2023-01-28T05:06:32;100939.56;;;3.95;69.08
74960;BME280;63518;49.572;1.106;2023-01-28T05:08:59;100933.69;;;3.91;68.95
74960;BME280;63518;49.572;1.106;2023-01-28T05:11:26;100892.94;;;3.70;69.91
74960;BME280;63518;49.572;1.106;2023-01-28T05:13:54;100921.84;;;4.05;68.45
74960;BME280;63518;49.572;1.106;2023-01-28T05:16:21;100938.44;;;4.10;69.75
74960;BME280;63518;49.572;1.106;2023-01-28T05:18:50;100932.69;;;3.99;71.18
74960;BME280;63518;49.572;1.106;2023-01-28T05:21:17;100922.13;;;3.61;71.11
74960;BME280;63518;49.572;1.106;2023-01-28T05:23:44;100932.66;;;3.92;69.27
74960;BME280;63518;49.572;1.106;2023-01-28T05:26:11;100927.16;;;3.85;70.66
74960;BME280;63518;49.572;1.106;2023-01-28T05:28:39;100925.00;;;3.81;70.94
74960;BME280;63518;49.572;1.106;2023-01-28T05:31:06;100917.25;;;3.78;69.82
74960;BME280;63518;49.572;1.106;2023-01-28T05:33:33;100920.25;;;3.90;70.94
74960;BME280;63518;49.572;1.106;2023-01-28T05:36:00;100925.06;;;3.88;69.15
74960;BME280;63518;49.572;1.106;2023-01-28T05:38:30;100941.91;;;3.76;69.59
74960;BME280;63518;49.572;1.106;2023-01-28T05:40:57;100931.53;;;3.86;68.53
74960;BME280;63518;49.572;1.106;2023-01-28T05:43:26;100907.38;;;3.70;71.41
74960;BME280;63518;49.572;1.106;2023-01-28T05:45:54;100928.00;;;3.65;69.60
74960;BME280;63518;49.572;1.106;2023-01-28T05:48:23;100942.69;;;3.49;70.03
74960;BME280;63518;49.572;1.106;2023-01-28T05:50:50;100930.41;;;3.53;69.82
74960;BME280;63518;49.572;1.106;2023-01-28T05:53:17;100941.78;;;3.84;71.15
74960;BME280;63518;49.572;1.106;2023-01-28T05:55:49;100947.84;;;3.22;71.70
74960;BME280;63518;49.572;1.106;2023-01-28T05:58:22;100946.31;;;3.35;69.58
74960;BME280;63518;49.572;1.106;2023-01-28T06:00:49;100954.34;;;3.64;71.14
74960;BME280;63518;49.572;1.106;2023-01-28T06:03:18;100963.66;;;3.55;69.53
74960;BME280;63518;49.572;1.106;2023-01-28T06:05:46;100948.28;;;3.26;70.41
74960;BME280;63518;49.572;1.106;2023-01-28T06:08:13;100950.44;;;3.30;69.76
74960;BME280;63518;49.572;1.106;2023-01-28T06:10:41;100952.31;;;3.30;70.47
74960;BME280;63518;49.572;1.106;2023-01-28T06:13:08;100970.50;;;3.29;71.24
74960;BME280;63518;49.572;1.106;2023-01-28T06:15:35;100976.44;;;3.40;70.61
74960;BME280;63518;49.572;1.106;2023-01-28T06:18:05;100974.16;;;3.22;70.54
74960;BME280;63518;49.572;1.106;2023-01-28T06:20:33;100962.75;;;3.48;70.84
74960;BME280;63518;49.572;1.106;2023-01-28T06:23:01;100973.88;;;3.53;70.84
74960;BME280;63518;49.572;1.106;2023-01-28T06:25:30;100981.28;;;3.59;72.39
74960;BME280;63518;49.572;1.106;2023-01-28T06:27:58;100972.06;;;3.60;71.83
74960;BME280;63518;49.572;1.106;2023-01-28T06:30:25;100981.75;;;3.48;72.17
74960;BME280;63518;49.572;1.106;2023-01-28T06:32:54;100973.94;;;3.38;71.26
74960;BME280;63518;49.572;1.106;2023-01-28T06:35:22;100988.88;;;3.70;70.61
74960;BME280;63518;49.572;1.106;2023-01-28T06:37:49;100986.50;;;3.61;71.42
74960;BME280;63518;49.572;1.106;2023-01-28T06:40:16;100985.13;;;3.50;69.71
74960;BME280;63518;49.572;1.106;2023-01-28T06:42:44;100991.06;;;3.39;70.16
74960;BME280;63518;49.572;1.106;2023-01-28T06:45:11;100983.56;;;3.41;68.89
74960;BME280;63518;49.572;1.106;2023-01-28T06:47:38;100988.09;;;3.55;69.03
74960;BME280;63518;49.572;1.106;2023-01-28T06:50:06;100990.44;;;3.58;68.83
74960;BME280;63518;49.572;1.106;2023-01-28T06:52:33;100990.66;;;3.42;68.75
74960;BME280;63518;49.572;1.106;2023-01-28T06:55:00;100990.34;;;3.66;69.33
74960;BME280;63518;49.572;1.106;2023-01-28T06:57:28;100989.97;;;3.54;70.14
74960;BME280;63518;49.572;1.106;2023-01-28T06:59:55;100984.44;;;3.63;68.94
74960;BME280;63518;49.572;1.106;2023-01-28T07:02:22;100981.28;;;3.59;72.47
74960;BME280;63518;49.572;1.106;2023-01-28T07:04:53;100989.47;;;3.44;70.81
74960;BME280;63518;49.572;1.106;2023-01-28T07:07:20;100979.59;;;3.22;70.27
74960;BME280;63518;49.572;1.106;2023-01-28T07:09:49;100979.19;;;3.25;69.71
74960;BME280;63518;49.572;1.106;2023-01-28T07:12:16;100976.69;;;3.23;70.22
74960;BME280;63518;49.572;1.106;2023-01-28T07:14:46;100977.59;;;3.30;71.26
74960;BME280;63518;49.572;1.106;2023-01-28T07:17:13;100976.38;;;3.33;69.51
74960;BME280;63518;49.572;1.106;2023-01-28T07:19:42;100968.94;;;3.20;70.90
74960;BME280;63518;49.572;1.106;2023-01-28T07:22:09;100987.16;;;3.26;69.44
74960;BME280;63518;49.572;1.106;2023-01-28T07:24:39;100977.94;;;3.42;68.45
74960;BME280;63518;49.572;1.106;2023-01-28T07:27:06;100958.34;;;3.47;68.24
74960;BME280;63518;49.572;1.106;2023-01-28T07:29:33;100982.63;;;3.34;68.23
74960;BME280;63518;49.572;1.106;2023-01-28T07:32:00;100959.50;;;3.38;72.30
74960;BME280;63518;49.572;1.106;2023-01-28T07:34:32;100967.94;;;3.43;67.73
74960;BME280;63518;49.572;1.106;2023-01-28T07:36:59;100986.03;;;3.57;67.90
74960;BME280;63518;49.572;1.106;2023-01-28T07:39:28;100976.06;;;3.64;68.03
74960;BME280;63518;49.572;1.106;2023-01-28T07:41:58;100989.53;;;3.72;69.92
74960;BME280;63518;49.572;1.106;2023-01-28T07:44:25;101000.47;;;3.79;66.32
74960;BME280;63518;49.572;1.106;2023-01-28T07:46:52;100990.94;;;3.90;66.54
74960;BME280;63518;49.572;1.106;2023-01-28T07:49:20;100989.91;;;3.48;67.44
74960;BME280;63518;49.572;1.106;2023-01-28T07:51:47;101002.75;;;3.75;67.21
74960;BME280;63518;49.572;1.106;2023-01-28T07:54:16;100985.63;;;4.03;69.67
74960;BME280;63518;49.572;1.106;2023-01-28T07:56:45;100998.06;;;3.48;67.96
74960;BME280;63518;49.572;1.106;2023-01-28T07:59:17;100985.13;;;3.50;67.69
74960;BME280;63518;49.572;1.106;2023-01-28T08:01:47;100989.16;;;3.75;68.09
74960;BME280;63518;49.572;1.106;2023-01-28T08:04:14;100969.00;;;3.27;68.33
74960;BME280;63518;49.572;1.106;2023-01-28T08:06:42;100996.41;;;3.68;68.11
74960;BME280;63518;49.572;1.106;2023-01-28T08:09:09;100987.31;;;3.40;67.99
74960;BME280;63518;49.572;1.106;2023-01-28T08:11:37;101007.13;;;3.55;68.07
74960;BME280;63518;49.572;1.106;2023-01-28T08:14:05;101004.84;;;3.37;67.94
74960;BME280;63518;49.572;1.106;2023-01-28T08:16:32;101009.25;;;3.38;67.92
74960;BME280;63518;49.572;1.106;2023-01-28T08:18:59;100990.53;;;3.50;67.94
74960;BME280;63518;49.572;1.106;2023-01-28T08:21:30;101002.81;;;3.61;68.62
74960;BME280;63518;49.572;1.106;2023-01-28T08:23:57;100999.25;;;3.60;70.57
74960;BME280;63518;49.572;1.106;2023-01-28T08:26:24;101009.75;;;3.48;68.27
74960;BME280;63518;49.572;1.106;2023-01-28T08:28:51;100997.03;;;3.70;68.22
74960;BME280;63518;49.572;1.106;2023-01-28T08:31:18;100979.06;;;3.69;67.03
74960;BME280;63518;49.572;1.106;2023-01-28T08:33:46;101001.53;;;3.42;67.66
74960;BME280;63518;49.572;1.106;2023-01-28T08:36:13;100987.09;;;3.77;68.80
74960;BME280;63518;49.572;1.106;2023-01-28T08:38:40;101002.84;;;3.46;68.19
74960;BME280;63518;49.572;1.106;2023-01-28T08:41:07;101015.66;;;3.52;67.92
74960;BME280;63518;49.572;1.106;2023-01-28T08:43:34;101014.16;;;3.49;67.83
74960;BME280;63518;49.572;1.106;2023-01-28T08:46:05;100987.66;;;3.51;70.41
74960;BME280;63518;49.572;1.106;2023-01-28T08:48:35;101010.44;;;3.50;69.45
74960;BME280;63518;49.572;1.106;2023-01-28T08:51:07;101010.09;;;3.39;68.68
74960;BME280;63518;49.572;1.106;2023-01-28T08:53:34;101006.28;;;3.54;68.27
74960;BME280;63518;49.572;1.106;2023-01-28T08:56:01;100997.06;;;3.34;69.91
74960;BME280;63518;49.572;1.106;2023-01-28T08:58:29;101000.28;;;3.59;69.28
74960;BME280;63518;49.572;1.106;2023-01-28T09:00:56;101010.19;;;3.30;68.50
74960;BME280;63518;49.572;1.106;2023-01-28T09:03:23;101019.91;;;3.40;70.22
74960;BME280;63518;49.572;1.106;2023-01-28T09:05:59;101024.81;;;3.29;68.70
74960;BME280;63518;49.572;1.106;2023-01-28T09:08:26;101031.38;;;3.35;68.21
74960;BME280;63518;49.572;1.106;2023-01-28T09:10:56;101019.66;;;3.35;70.29
74960;BME280;63518;49.572;1.106;2023-01-28T09:13:23;101038.66;;;3.71;69.21
74960;BME280;63518;49.572;1.106;2023-01-28T09:15:51;101021.66;;;3.47;67.94
74960;BME280;63518;49.572;1.106;2023-01-28T09:18:18;101051.13;;;3.29;68.14
74960;BME280;63518;49.572;1.106;2023-01-28T09:20:46;101045.31;;;3.32;68.91
74960;BME280;63518;49.572;1.106;2023-01-28T09:23:13;101014.81;;;3.15;67.79
74960;BME280;63518;49.572;1.106;2023-01-28T09:25:40;101043.31;;;3.41;68.43
74960;BME280;63518;49.572;1.106;2023-01-28T09:28:07;101026.31;;;3.17;68.02
74960;BME280;63518;49.572;1.106;2023-01-28T09:30:35;101049.22;;;3.44;69.42
74960;BME280;63518;49.572;1.106;2023-01-28T09:33:05;101056.63;;;3.72;70.09
74960;BME280;63518;49.572;1.106;2023-01-28T09:35:36;101026.88;;;3.27;67.98
74960;BME280;63518;49.572;1.106;2023-01-28T09:38:03;101054.13;;;3.70;67.17
74960;BME280;63518;49.572;1.106;2023-01-28T09:40:38;101047.47;;;4.16;67.08
74960;BME280;63518;49.572;1.106;2023-01-28T09:45:47;101043.91;;;3.94;65.85
74960;BME280;63518;49.572;1.106;2023-01-28T09:48:20;101060.38;;;4.35;65.19
74960;BME280;63518;49.572;1.106;2023-01-28T09:50:53;101051.16;;;4.57;64.93
74960;BME280;63518;49.572;1.106;2023-01-28T09:53:27;101033.56;;;4.60;63.87
74960;BME280;63518;49.572;1.106;2023-01-28T09:56:23;101051.09;;;4.51;63.92
74960;BME280;63518;49.572;1.106;2023-01-28T09:58:51;101060.59;;;5.24;65.61
74960;BME280;63518;49.572;1.106;2023-01-28T10:01:35;101069.16;;;4.58;63.72
74960;BME280;63518;49.572;1.106;2023-01-28T10:04:17;101052.28;;;5.04;61.63
74960;BME280;63518;49.572;1.106;2023-01-28T10:12:44;101077.56;;;5.26;61.43
74960;BME280;63518;49.572;1.106;2023-01-28T10:15:40;101075.00;;;5.18;61.77
74960;BME280;63518;49.572;1.106;2023-01-28T10:18:12;101072.38;;;5.38;61.08
74960;BME280;63518;49.572;1.106;2023-01-28T10:20:48;101079.50;;;5.39;62.79
74960;BME280;63518;49.572;1.106;2023-01-28T10:25:46;101083.00;;;5.26;61.95
74960;BME280;63518;49.572;1.106;2023-01-28T10:28:26;101087.31;;;5.55;62.22
74960;BME280;63518;49.572;1.106;2023-01-28T10:30:54;101085.78;;;5.33;60.63
74960;BME280;63518;49.572;1.106;2023-01-28T10:35:55;101091.63;;;5.84;60.72
74960;BME280;63518;49.572;1.106;2023-01-28T10:38:24;101071.47;;;5.72;59.99
74960;BME280;63518;49.572;1.106;2023-01-28T10:40:59;101084.13;;;6.06;60.56
74960;BME280;63518;49.572;1.106;2023-01-28T10:43:32;101075.69;;;5.81;60.50
74960;BME280;63518;49.572;1.106;2023-01-28T10:46:06;101073.16;;;5.79;58.00
74960;BME280;63518;49.572;1.106;2023-01-28T10:48:37;101084.13;;;6.06;58.83
74960;BME280;63518;49.572;1.106;2023-01-28T10:51:08;101065.16;;;5.65;58.66
74960;BME280;63518;49.572;1.106;2023-01-28T10:53:40;101067.41;;;5.54;60.08
74960;BME280;63518;49.572;1.106;2023-01-28T10:56:15;101071.91;;;5.82;60.08
74960;BME280;63518;49.572;1.106;2023-01-28T10:58:57;101080.41;;;6.27;59.38
74960;BME280;63518;49.572;1.106;2023-01-28T11:01:47;101069.88;;;6.30;59.93
74960;BME280;63518;49.572;1.106;2023-01-28T11:04:26;101057.28;;;6.23;60.57
74960;BME280;63518;49.572;1.106;2023-01-28T11:09:35;101074.06;;;6.26;59.34
74960;BME280;63518;49.572;1.106;2023-01-28T11:12:20;101061.47;;;6.19;58.45
74960;BME280;63518;49.572;1.106;2023-01-28T11:14:55;101067.78;;;6.26;58.40
74960;BME280;63518;49.572;1.106;2023-01-28T11:17:25;101059.00;;;6.63;57.73
74960;BME280;63518;49.572;1.106;2023-01-28T11:19:53;101066.53;;;6.28;58.28
74960;BME280;63518;49.572;1.106;2023-01-28T11:24:50;101056.47;;;6.75;60.08
74960;BME280;63518;49.572;1.106;2023-01-28T11:27:24;101068.84;;;6.31;57.08
74960;BME280;63518;49.572;1.106;2023-01-28T11:29:56;101065.91;;;6.39;57.63
74960;BME280;63518;49.572;1.106;2023-01-28T11:32:24;101058.34;;;6.28;57.43
74960;BME280;63518;49.572;1.106;2023-01-28T11:34:55;101042.16;;;6.14;57.85
74960;BME280;63518;49.572;1.106;2023-01-28T11:37:27;101063.41;;;6.64;58.67
74960;BME280;63518;49.572;1.106;2023-01-28T11:40:24;101059.81;;;6.57;58.44
74960;BME280;63518;49.572;1.106;2023-01-28T11:42:52;101054.59;;;6.62;56.21
74960;BME280;63518;49.572;1.106;2023-01-28T11:45:31;101059.78;;;6.97;56.40
74960;BME280;63518;49.572;1.106;2023-01-28T11:50:49;101048.69;;;6.79;57.50
74960;BME280;63518;49.572;1.106;2023-01-28T11:53:41;101054.88;;;7.26;56.96
74960;BME280;63518;49.572;1.106;2023-01-28T12:07:52;101038.59;;;6.73;59.01
74960;BME280;63518;49.572;1.106;2023-01-28T12:10:39;101048.06;;;6.37;57.75
74960;BME280;63518;49.572;1.106;2023-01-28T12:13:32;101043.66;;;6.29;55.70
74960;BME280;63518;49.572;1.106;2023-01-28T12:38:32;101010.25;;;6.07;56.16
74960;BME280;63518;49.572;1.106;2023-01-28T12:46:17;100992.84;;;6.42;56.20
74960;BME280;63518;49.572;1.106;2023-01-28T12:49:13;100990.97;;;6.35;56.74
74960;BME280;63518;49.572;1.106;2023-01-28T12:54:42;100983.81;;;6.15;57.84
74960;BME280;63518;49.572;1.106;2023-01-28T12:57:22;100977.09;;;6.30;57.39
74960;BME280;63518;49.572;1.106;2023-01-28T13:05:38;100965.75;;;6.67;57.13
74960;BME280;63518;49.572;1.106;2023-01-28T13:08:22;100949.59;;;6.52;55.25
74960;BME280;63518;49.572;1.106;2023-01-28T13:10:55;100941.06;;;6.93;55.81
74960;BME280;63518;49.572;1.106;2023-01-28T13:13:32;100957.81;;;7.03;54.99
74960;BME280;63518;49.572;1.106;2023-01-28T13:16:02;100956.72;;;6.59;54.76
74960;BME280;63518;49.572;1.106;2023-01-28T13:18:44;100949.34;;;6.67;56.66
74960;BME280;63518;49.572;1.106;2023-01-28T13:26:54;100935.72;;;6.60;55.96
74960;BME280;63518;49.572;1.106;2023-01-28T13:29:32;100932.09;;;6.73;54.40
74960;BME280;63518;49.572;1.106;2023-01-28T13:32:02;100941.34;;;6.72;54.80
74960;BME280;63518;49.572;1.106;2023-01-28T13:34:41;100928.72;;;6.84;57.80
74960;BME280;63518;49.572;1.106;2023-01-28T13:37:22;100944.56;;;6.16;55.16
74960;BME280;63518;49.572;1.106;2023-01-28T13:39:59;100941.22;;;6.27;57.00
74960;BME280;63518;49.572;1.106;2023-01-28T13:42:30;100939.50;;;6.39;56.82
74960;BME280;63518;49.572;1.106;2023-01-28T13:48:01;100947.91;;;6.37;55.08
74960;BME280;63518;49.572;1.106;2023-01-28T13:50:38;100951.72;;;6.43;57.97
74960;BME280;63518;49.572;1.106;2023-01-28T13:53:30;100955.25;;;6.50;56.07
74960;BME280;63518;49.572;1.106;2023-01-28T13:56:04;100956.06;;;6.57;56.03
74960;BME280;63518;49.572;1.106;2023-01-28T13:58:49;100953.66;;;7.01;53.74
74960;BME280;63518;49.572;1.106;2023-01-28T14:09:52;100982.78;;;7.58;55.46
74960;BME280;63518;49.572;1.106;2023-01-28T14:15:37;100970.78;;;6.50;57.03
74960;BME280;63518;49.572;1.106;2023-01-28T14:18:41;101003.38;;;6.51;57.08
74960;BME280;63518;49.572;1.106;2023-01-28T14:21:11;100994.50;;;6.62;55.54
74960;BME280;63518;49.572;1.106;2023-01-28T14:23:44;100998.47;;;6.80;55.81
74960;BME280;63518;49.572;1.106;2023-01-28T14:31:36;100985.28;;;6.37;56.99
74960;BME280;63518;49.572;1.106;2023-01-28T14:36:42;100985.25;;;6.77;58.72
74960;BME280;63518;49.572;1.106;2023-01-28T14:39:31;101000.59;;;6.71;57.07
74960;BME280;63518;49.572;1.106;2023-01-28T14:42:03;100998.94;;;6.30;56.54
74960;BME280;63518;49.572;1.106;2023-01-28T14:44:33;100991.78;;;6.69;56.38
74960;BME280;63518;49.572;1.106;2023-01-28T14:58:48;101007.53;;;6.14;58.46
74960;BME280;63518;49.572;1.106;2023-01-28T15:01:23;100996.41;;;5.96;59.39
74960;BME280;63518;49.572;1.106;2023-01-28T15:03:51;101018.66;;;5.99;58.35
74960;BME280;63518;49.572;1.106;2023-01-28T15:06:24;101026.22;;;6.30;61.17
74960;BME280;63518;49.572;1.106;2023-01-28T15:08:52;101024.75;;;6.28;60.99
74960;BME280;63518;49.572;1.106;2023-01-28T15:11:22;101014.44;;;6.10;60.16
74960;BME280;63518;49.572;1.106;2023-01-28T15:13:56;101020.97;;;6.22;59.34
74960;BME280;63518;49.572;1.106;2023-01-28T15:16:26;101007.34;;;6.29;59.46
74960;BME280;63518;49.572;1.106;2023-01-28T15:18:56;101009.00;;;6.03;60.18
74960;BME280;63518;49.572;1.106;2023-01-28T15:21:26;101003.13;;;6.20;61.51
74960;BME280;63518;49.572;1.106;2023-01-28T15:23:59;101008.38;;;6.08;59.84
74960;BME280;63518;49.572;1.106;2023-01-28T15:26:30;101014.25;;;5.98;59.21
74960;BME280;63518;49.572;1.106;2023-01-28T15:28:58;100990.09;;;5.82;59.73
74960;BME280;63518;49.572;1.106;2023-01-28T15:31:29;101002.28;;;6.06;61.93
74960;BME280;63518;49.572;1.106;2023-01-28T15:36:30;101013.56;;;5.76;59.56
74960;BME280;63518;49.572;1.106;2023-01-28T15:39:00;101004.78;;;6.01;61.76